This is the latest recevied weather packets stored in our database for station/object IU1DOF-3. If no packets are shown the sender has not sent any weather packets the latest 10 day(s).
| Time | Temp. | Humidity | Pressure | Rain* | Wind** | Luminosity | Snow |
|---|---|---|---|---|---|---|---|
| 1777453107 | 15° C | 80% | 1015.7 hPa | 0 mm | - | - | - |
| 1777452483 | 15° C | 79% | 1015.8 hPa | 0 mm | - | - | - |
| 1777451859 | 15° C | 80% | 1015.5 hPa | 0 mm | - | - | - |
| 1777451235 | 13.33° C | 85% | 1015.8 hPa | 0 mm | - | - | - |
| 1777450611 | 13.33° C | 84% | 1015.7 hPa | 0 mm | - | - | - |
| 1777450001 | 13.33° C | 85% | 1015.4 hPa | 0 mm | - | - | - |
| 1777449379 | 13.89° C | 84% | 1015.4 hPa | 0 mm | - | - | - |
| 1777448755 | 14.44° C | 81% | 1015.5 hPa | 0 mm | - | - | - |
| 1777448140 | 14.44° C | 81% | 1015.6 hPa | 0 mm | - | - | - |
| 1777447524 | 15° C | 81% | 1015.7 hPa | 0 mm | - | - | - |
| 1777446899 | 13.89° C | 86% | 1015.6 hPa | 0 mm | - | - | - |
| 1777446278 | 12.22° C | 90% | 1015.4 hPa | 0 mm | - | - | - |
| 1777445666 | 12.22° C | 91% | 1015.4 hPa | 0 mm | - | - | - |
| 1777445043 | 12.22° C | 91% | 1015.6 hPa | 0 mm | - | - | - |
| 1777444435 | 11.67° C | 91% | 1015.4 hPa | 0 mm | - | - | - |
| 1777443827 | 13.89° C | 86% | 1015.6 hPa | 0 mm | - | - | - |
| 1777443219 | 12.78° C | 91% | 1015.3 hPa | 0 mm | - | - | - |
| 1777442611 | 11.11° C | 95% | 1015.2 hPa | 0 mm | - | - | - |
| 1777442003 | 10.56° C | 96% | 1015.1 hPa | 0 mm | - | - | - |
| 1777441379 | 10° C | 97% | 1015.1 hPa | 0 mm | - | - | - |
| 1777440771 | 9.44° C | 97% | 1015 hPa | 0 mm | - | - | - |
| 1777440160 | 9.44° C | 97% | 1014.8 hPa | 0 mm | - | - | - |
| 1777439539 | 9.44° C | 97% | 1014.8 hPa | 0 mm | - | - | - |
| 1777438917 | 9.44° C | 97% | 1014.6 hPa | 0 mm | - | - | - |
| 1777438301 | 9.44° C | 97% | 1014.9 hPa | 0 mm | - | - | - |
* Rain latest hour (hover to see other rain measurements)
** Current wind speed in m/s (hover to see current wind gust speed)